sensor_id;sensor_type;location;lat;lon;timestamp;P1;durP1;ratioP1;P2;durP2;ratioP2
19869;SDS011;10097;50.862;4.696;2023-03-23T00:00:54;6.00;;;2.40;;
19869;SDS011;10097;50.862;4.696;2023-03-23T00:03:20;4.53;;;2.50;;
19869;SDS011;10097;50.862;4.696;2023-03-23T00:05:47;7.03;;;2.50;;
19869;SDS011;10097;50.862;4.696;2023-03-23T00:08:21;6.97;;;2.53;;
19869;SDS011;10097;50.862;4.696;2023-03-23T00:10:50;7.77;;;2.90;;
19869;SDS011;10097;50.862;4.696;2023-03-23T00:13:18;6.50;;;2.37;;
19869;SDS011;10097;50.862;4.696;2023-03-23T00:15:45;9.23;;;2.73;;
19869;SDS011;10097;50.862;4.696;2023-03-23T00:18:14;6.70;;;2.40;;
19869;SDS011;10097;50.862;4.696;2023-03-23T00:20:50;6.27;;;2.70;;
19869;SDS011;10097;50.862;4.696;2023-03-23T00:23:24;7.57;;;2.90;;
19869;SDS011;10097;50.862;4.696;2023-03-23T00:25:52;5.37;;;2.30;;
19869;SDS011;10097;50.862;4.696;2023-03-23T00:28:22;6.03;;;2.73;;
19869;SDS011;10097;50.862;4.696;2023-03-23T00:31:02;5.47;;;2.50;;
19869;SDS011;10097;50.862;4.696;2023-03-23T00:33:31;5.80;;;2.50;;
19869;SDS011;10097;50.862;4.696;2023-03-23T00:36:03;6.10;;;2.37;;
19869;SDS011;10097;50.862;4.696;2023-03-23T00:38:29;9.97;;;2.87;;
19869;SDS011;10097;50.862;4.696;2023-03-23T00:40:56;7.20;;;2.57;;
19869;SDS011;10097;50.862;4.696;2023-03-23T00:43:22;6.80;;;2.50;;
19869;SDS011;10097;50.862;4.696;2023-03-23T00:45:54;6.90;;;2.47;;
19869;SDS011;10097;50.862;4.696;2023-03-23T00:48:21;6.17;;;2.63;;
19869;SDS011;10097;50.862;4.696;2023-03-23T00:50:48;6.93;;;2.73;;
19869;SDS011;10097;50.862;4.696;2023-03-23T00:53:15;5.83;;;2.63;;
19869;SDS011;10097;50.862;4.696;2023-03-23T00:55:41;7.97;;;2.60;;
19869;SDS011;10097;50.862;4.696;2023-03-23T00:58:08;4.70;;;2.30;;
19869;SDS011;10097;50.862;4.696;2023-03-23T01:00:34;5.03;;;2.17;;
19869;SDS011;10097;50.862;4.696;2023-03-23T01:03:00;5.50;;;2.60;;
19869;SDS011;10097;50.862;4.696;2023-03-23T01:05:26;8.83;;;2.47;;
19869;SDS011;10097;50.862;4.696;2023-03-23T01:07:57;8.70;;;2.90;;
19869;SDS011;10097;50.862;4.696;2023-03-23T01:10:23;5.57;;;2.30;;
19869;SDS011;10097;50.862;4.696;2023-03-23T01:12:51;6.27;;;2.70;;
19869;SDS011;10097;50.862;4.696;2023-03-23T01:15:17;3.97;;;2.27;;
19869;SDS011;10097;50.862;4.696;2023-03-23T01:17:44;5.23;;;2.63;;
19869;SDS011;10097;50.862;4.696;2023-03-23T01:20:11;6.20;;;2.70;;
19869;SDS011;10097;50.862;4.696;2023-03-23T01:22:40;5.70;;;2.17;;
19869;SDS011;10097;50.862;4.696;2023-03-23T01:25:07;5.43;;;2.27;;
19869;SDS011;10097;50.862;4.696;2023-03-23T01:27:34;6.40;;;2.40;;
19869;SDS011;10097;50.862;4.696;2023-03-23T01:29:59;6.43;;;2.60;;
19869;SDS011;10097;50.862;4.696;2023-03-23T01:32:25;6.83;;;2.47;;
19869;SDS011;10097;50.862;4.696;2023-03-23T01:34:52;6.57;;;2.40;;
19869;SDS011;10097;50.862;4.696;2023-03-23T01:37:18;9.50;;;2.47;;
19869;SDS011;10097;50.862;4.696;2023-03-23T01:39:44;5.83;;;2.17;;
19869;SDS011;10097;50.862;4.696;2023-03-23T01:42:11;5.00;;;2.50;;
19869;SDS011;10097;50.862;4.696;2023-03-23T01:47:02;8.17;;;2.53;;
19869;SDS011;10097;50.862;4.696;2023-03-23T01:49:33;5.53;;;2.30;;
19869;SDS011;10097;50.862;4.696;2023-03-23T01:52:07;5.93;;;2.00;;
19869;SDS011;10097;50.862;4.696;2023-03-23T01:54:42;5.17;;;2.20;;
19869;SDS011;10097;50.862;4.696;2023-03-23T01:57:11;5.20;;;2.17;;
19869;SDS011;10097;50.862;4.696;2023-03-23T01:59:39;5.93;;;2.30;;
19869;SDS011;10097;50.862;4.696;2023-03-23T02:02:09;8.17;;;2.43;;
19869;SDS011;10097;50.862;4.696;2023-03-23T02:04:35;4.67;;;1.90;;
19869;SDS011;10097;50.862;4.696;2023-03-23T02:07:02;5.23;;;2.30;;
19869;SDS011;10097;50.862;4.696;2023-03-23T02:09:29;5.90;;;2.27;;
19869;SDS011;10097;50.862;4.696;2023-03-23T02:11:55;4.43;;;2.40;;
19869;SDS011;10097;50.862;4.696;2023-03-23T02:14:22;7.90;;;2.30;;
19869;SDS011;10097;50.862;4.696;2023-03-23T02:16:53;6.90;;;2.40;;
19869;SDS011;10097;50.862;4.696;2023-03-23T02:19:41;5.67;;;2.57;;
19869;SDS011;10097;50.862;4.696;2023-03-23T02:30:10;8.30;;;2.17;;
19869;SDS011;10097;50.862;4.696;2023-03-23T02:33:06;6.23;;;2.50;;
19869;SDS011;10097;50.862;4.696;2023-03-23T02:35:58;6.70;;;2.43;;
19869;SDS011;10097;50.862;4.696;2023-03-23T02:38:42;10.67;;;2.13;;
19869;SDS011;10097;50.862;4.696;2023-03-23T02:41:31;5.80;;;2.37;;
19869;SDS011;10097;50.862;4.696;2023-03-23T02:44:03;5.70;;;2.30;;
19869;SDS011;10097;50.862;4.696;2023-03-23T02:46:31;5.60;;;2.07;;
19869;SDS011;10097;50.862;4.696;2023-03-23T02:48:58;7.07;;;2.23;;
19869;SDS011;10097;50.862;4.696;2023-03-23T02:51:26;7.00;;;1.87;;
19869;SDS011;10097;50.862;4.696;2023-03-23T02:53:53;6.27;;;1.70;;
19869;SDS011;10097;50.862;4.696;2023-03-23T02:56:21;6.43;;;1.77;;
19869;SDS011;10097;50.862;4.696;2023-03-23T02:58:48;9.70;;;2.43;;
19869;SDS011;10097;50.862;4.696;2023-03-23T03:03:57;6.20;;;2.17;;
19869;SDS011;10097;50.862;4.696;2023-03-23T03:09:22;12.57;;;4.37;;
19869;SDS011;10097;50.862;4.696;2023-03-23T03:12:08;7.50;;;2.50;;
19869;SDS011;10097;50.862;4.696;2023-03-23T03:14:41;3.43;;;1.60;;
19869;SDS011;10097;50.862;4.696;2023-03-23T03:17:23;3.63;;;1.90;;
19869;SDS011;10097;50.862;4.696;2023-03-23T03:19:52;5.00;;;1.90;;
19869;SDS011;10097;50.862;4.696;2023-03-23T03:22:22;8.17;;;2.27;;
19869;SDS011;10097;50.862;4.696;2023-03-23T03:24:53;4.87;;;1.83;;
19869;SDS011;10097;50.862;4.696;2023-03-23T03:27:22;3.93;;;1.80;;
19869;SDS011;10097;50.862;4.696;2023-03-23T03:29:51;5.00;;;1.80;;
19869;SDS011;10097;50.862;4.696;2023-03-23T03:32:22;8.47;;;2.10;;
19869;SDS011;10097;50.862;4.696;2023-03-23T03:34:56;5.50;;;2.23;;
19869;SDS011;10097;50.862;4.696;2023-03-23T03:37:24;6.20;;;1.90;;
19869;SDS011;10097;50.862;4.696;2023-03-23T03:39:50;7.77;;;1.97;;
19869;SDS011;10097;50.862;4.696;2023-03-23T03:42:16;8.50;;;2.33;;
19869;SDS011;10097;50.862;4.696;2023-03-23T03:44:41;5.67;;;1.90;;
19869;SDS011;10097;50.862;4.696;2023-03-23T03:47:07;5.27;;;1.73;;
19869;SDS011;10097;50.862;4.696;2023-03-23T03:49:33;6.97;;;1.60;;
19869;SDS011;10097;50.862;4.696;2023-03-23T03:51:58;7.00;;;1.70;;
19869;SDS011;10097;50.862;4.696;2023-03-23T03:54:24;5.17;;;1.80;;
19869;SDS011;10097;50.862;4.696;2023-03-23T03:56:50;6.03;;;1.90;;
19869;SDS011;10097;50.862;4.696;2023-03-23T03:59:17;5.97;;;1.80;;
19869;SDS011;10097;50.862;4.696;2023-03-23T04:01:42;5.20;;;1.80;;
19869;SDS011;10097;50.862;4.696;2023-03-23T04:04:08;4.77;;;1.73;;
19869;SDS011;10097;50.862;4.696;2023-03-23T04:06:33;4.60;;;1.70;;
19869;SDS011;10097;50.862;4.696;2023-03-23T04:09:03;9.73;;;1.93;;
19869;SDS011;10097;50.862;4.696;2023-03-23T04:11:33;4.43;;;1.60;;
19869;SDS011;10097;50.862;4.696;2023-03-23T04:13:58;8.07;;;2.00;;
19869;SDS011;10097;50.862;4.696;2023-03-23T04:16:24;6.63;;;1.90;;
19869;SDS011;10097;50.862;4.696;2023-03-23T04:18:51;7.63;;;1.80;;
19869;SDS011;10097;50.862;4.696;2023-03-23T04:21:16;9.83;;;1.60;;
19869;SDS011;10097;50.862;4.696;2023-03-23T04:23:42;9.70;;;2.20;;
19869;SDS011;10097;50.862;4.696;2023-03-23T04:26:08;8.10;;;1.97;;
19869;SDS011;10097;50.862;4.696;2023-03-23T04:28:37;7.33;;;1.77;;
19869;SDS011;10097;50.862;4.696;2023-03-23T04:31:04;9.97;;;1.90;;
19869;SDS011;10097;50.862;4.696;2023-03-23T04:33:29;6.53;;;1.77;;
19869;SDS011;10097;50.862;4.696;2023-03-23T04:35:56;7.60;;;1.60;;
19869;SDS011;10097;50.862;4.696;2023-03-23T04:38:26;8.60;;;2.37;;
19869;SDS011;10097;50.862;4.696;2023-03-23T04:40:52;7.03;;;1.50;;
19869;SDS011;10097;50.862;4.696;2023-03-23T04:43:19;10.63;;;2.27;;
19869;SDS011;10097;50.862;4.696;2023-03-23T04:45:46;11.03;;;1.93;;
19869;SDS011;10097;50.862;4.696;2023-03-23T04:48:16;8.60;;;1.77;;
19869;SDS011;10097;50.862;4.696;2023-03-23T04:50:43;8.60;;;1.50;;
19869;SDS011;10097;50.862;4.696;2023-03-23T04:53:09;6.63;;;2.10;;
19869;SDS011;10097;50.862;4.696;2023-03-23T04:55:36;8.53;;;1.53;;
19869;SDS011;10097;50.862;4.696;2023-03-23T04:58:02;8.13;;;1.50;;
19869;SDS011;10097;50.862;4.696;2023-03-23T05:00:29;11.17;;;1.63;;
19869;SDS011;10097;50.862;4.696;2023-03-23T05:02:55;10.30;;;2.10;;
19869;SDS011;10097;50.862;4.696;2023-03-23T05:05:21;6.63;;;1.40;;
19869;SDS011;10097;50.862;4.696;2023-03-23T05:07:48;11.37;;;1.33;;
19869;SDS011;10097;50.862;4.696;2023-03-23T05:10:14;7.43;;;1.13;;
19869;SDS011;10097;50.862;4.696;2023-03-23T05:12:41;7.00;;;1.37;;
19869;SDS011;10097;50.862;4.696;2023-03-23T05:15:08;5.37;;;1.20;;
19869;SDS011;10097;50.862;4.696;2023-03-23T05:17:35;6.90;;;1.40;;
19869;SDS011;10097;50.862;4.696;2023-03-23T05:20:02;4.90;;;1.43;;
19869;SDS011;10097;50.862;4.696;2023-03-23T05:22:30;11.90;;;1.70;;
19869;SDS011;10097;50.862;4.696;2023-03-23T05:24:59;6.30;;;1.17;;
19869;SDS011;10097;50.862;4.696;2023-03-23T05:27:27;6.33;;;1.13;;
19869;SDS011;10097;50.862;4.696;2023-03-23T05:29:55;6.00;;;1.37;;
19869;SDS011;10097;50.862;4.696;2023-03-23T05:32:23;5.10;;;1.00;;
19869;SDS011;10097;50.862;4.696;2023-03-23T05:34:55;4.70;;;1.17;;
19869;SDS011;10097;50.862;4.696;2023-03-23T05:37:22;5.97;;;1.33;;
19869;SDS011;10097;50.862;4.696;2023-03-23T05:39:48;4.57;;;1.30;;
19869;SDS011;10097;50.862;4.696;2023-03-23T05:42:13;4.27;;;1.17;;
19869;SDS011;10097;50.862;4.696;2023-03-23T05:44:39;4.90;;;1.00;;
19869;SDS011;10097;50.862;4.696;2023-03-23T05:47:05;3.30;;;1.47;;
19869;SDS011;10097;50.862;4.696;2023-03-23T05:49:30;5.97;;;1.23;;
19869;SDS011;10097;50.862;4.696;2023-03-23T05:51:56;6.00;;;1.30;;
19869;SDS011;10097;50.862;4.696;2023-03-23T05:54:22;6.53;;;1.40;;
19869;SDS011;10097;50.862;4.696;2023-03-23T05:56:48;5.77;;;1.53;;
19869;SDS011;10097;50.862;4.696;2023-03-23T05:59:14;7.10;;;1.43;;
19869;SDS011;10097;50.862;4.696;2023-03-23T06:01:40;5.97;;;1.30;;
19869;SDS011;10097;50.862;4.696;2023-03-23T06:04:05;7.93;;;1.70;;
19869;SDS011;10097;50.862;4.696;2023-03-23T06:06:31;4.83;;;1.30;;
19869;SDS011;10097;50.862;4.696;2023-03-23T06:08:57;6.53;;;1.43;;
19869;SDS011;10097;50.862;4.696;2023-03-23T06:11:24;6.43;;;1.17;;
19869;SDS011;10097;50.862;4.696;2023-03-23T06:13:51;5.37;;;1.50;;
19869;SDS011;10097;50.862;4.696;2023-03-23T06:16:18;6.40;;;1.50;;
19869;SDS011;10097;50.862;4.696;2023-03-23T06:18:44;3.33;;;1.63;;
19869;SDS011;10097;50.862;4.696;2023-03-23T06:21:10;5.67;;;1.43;;
19869;SDS011;10097;50.862;4.696;2023-03-23T06:23:36;8.63;;;1.57;;
19869;SDS011;10097;50.862;4.696;2023-03-23T06:26:04;5.87;;;1.63;;
19869;SDS011;10097;50.862;4.696;2023-03-23T06:28:32;7.47;;;1.33;;
19869;SDS011;10097;50.862;4.696;2023-03-23T06:30:59;6.10;;;1.30;;
19869;SDS011;10097;50.862;4.696;2023-03-23T06:33:31;9.27;;;2.03;;
19869;SDS011;10097;50.862;4.696;2023-03-23T06:35:59;8.97;;;1.80;;
19869;SDS011;10097;50.862;4.696;2023-03-23T06:38:25;5.07;;;1.33;;
19869;SDS011;10097;50.862;4.696;2023-03-23T06:40:54;5.63;;;1.30;;
19869;SDS011;10097;50.862;4.696;2023-03-23T06:43:21;8.47;;;1.30;;
19869;SDS011;10097;50.862;4.696;2023-03-23T06:45:47;7.67;;;1.80;;
19869;SDS011;10097;50.862;4.696;2023-03-23T06:48:13;5.13;;;1.20;;
19869;SDS011;10097;50.862;4.696;2023-03-23T06:50:42;7.53;;;1.83;;
19869;SDS011;10097;50.862;4.696;2023-03-23T06:53:09;7.83;;;1.70;;
19869;SDS011;10097;50.862;4.696;2023-03-23T06:55:35;6.10;;;1.20;;
19869;SDS011;10097;50.862;4.696;2023-03-23T06:58:02;4.60;;;1.50;;
19869;SDS011;10097;50.862;4.696;2023-03-23T07:00:30;6.43;;;1.37;;
19869;SDS011;10097;50.862;4.696;2023-03-23T07:02:56;7.13;;;1.20;;
19869;SDS011;10097;50.862;4.696;2023-03-23T07:05:23;6.33;;;1.90;;
19869;SDS011;10097;50.862;4.696;2023-03-23T07:07:49;6.53;;;1.40;;
19869;SDS011;10097;50.862;4.696;2023-03-23T07:10:15;8.67;;;1.60;;
19869;SDS011;10097;50.862;4.696;2023-03-23T07:12:41;5.80;;;1.33;;
19869;SDS011;10097;50.862;4.696;2023-03-23T07:15:07;7.23;;;1.53;;
19869;SDS011;10097;50.862;4.696;2023-03-23T07:17:35;5.87;;;1.43;;
19869;SDS011;10097;50.862;4.696;2023-03-23T07:20:02;8.13;;;1.57;;
19869;SDS011;10097;50.862;4.696;2023-03-23T07:22:29;7.63;;;1.60;;
19869;SDS011;10097;50.862;4.696;2023-03-23T07:24:56;5.93;;;2.00;;
19869;SDS011;10097;50.862;4.696;2023-03-23T07:27:22;9.67;;;1.60;;
19869;SDS011;10097;50.862;4.696;2023-03-23T07:29:48;11.03;;;2.00;;
19869;SDS011;10097;50.862;4.696;2023-03-23T07:32:14;9.80;;;1.77;;
19869;SDS011;10097;50.862;4.696;2023-03-23T07:34:40;5.63;;;1.80;;
19869;SDS011;10097;50.862;4.696;2023-03-23T07:37:06;7.00;;;1.37;;
19869;SDS011;10097;50.862;4.696;2023-03-23T07:39:32;9.97;;;1.87;;
19869;SDS011;10097;50.862;4.696;2023-03-23T07:41:58;5.33;;;1.87;;
19869;SDS011;10097;50.862;4.696;2023-03-23T07:44:24;6.67;;;1.93;;
19869;SDS011;10097;50.862;4.696;2023-03-23T07:46:51;4.83;;;1.00;;
19869;SDS011;10097;50.862;4.696;2023-03-23T07:49:19;2.60;;;0.60;;
19869;SDS011;10097;50.862;4.696;2023-03-23T07:51:45;4.70;;;0.70;;
19869;SDS011;10097;50.862;4.696;2023-03-23T07:54:13;2.50;;;0.60;;
19869;SDS011;10097;50.862;4.696;2023-03-23T07:56:39;5.53;;;0.73;;
19869;SDS011;10097;50.862;4.696;2023-03-23T07:59:06;6.17;;;1.20;;
19869;SDS011;10097;50.862;4.696;2023-03-23T08:01:32;4.70;;;0.90;;
19869;SDS011;10097;50.862;4.696;2023-03-23T08:03:58;4.20;;;1.30;;
19869;SDS011;10097;50.862;4.696;2023-03-23T08:06:24;7.77;;;1.27;;
19869;SDS011;10097;50.862;4.696;2023-03-23T08:08:51;4.50;;;1.37;;
19869;SDS011;10097;50.862;4.696;2023-03-23T08:11:17;5.97;;;1.73;;
19869;SDS011;10097;50.862;4.696;2023-03-23T08:13:44;2.80;;;1.20;;
19869;SDS011;10097;50.862;4.696;2023-03-23T08:16:10;6.00;;;1.17;;
19869;SDS011;10097;50.862;4.696;2023-03-23T08:18:36;3.47;;;0.97;;
19869;SDS011;10097;50.862;4.696;2023-03-23T08:21:04;4.83;;;1.87;;
19869;SDS011;10097;50.862;4.696;2023-03-23T08:23:33;7.40;;;1.53;;
19869;SDS011;10097;50.862;4.696;2023-03-23T08:26:00;7.50;;;2.17;;
19869;SDS011;10097;50.862;4.696;2023-03-23T08:28:26;4.93;;;1.37;;
19869;SDS011;10097;50.862;4.696;2023-03-23T08:30:52;7.03;;;1.80;;
19869;SDS011;10097;50.862;4.696;2023-03-23T08:33:17;4.10;;;1.40;;
19869;SDS011;10097;50.862;4.696;2023-03-23T08:35:43;6.50;;;1.20;;
19869;SDS011;10097;50.862;4.696;2023-03-23T08:38:10;4.40;;;0.87;;
19869;SDS011;10097;50.862;4.696;2023-03-23T08:40:36;4.30;;;1.00;;
19869;SDS011;10097;50.862;4.696;2023-03-23T08:43:04;2.07;;;0.77;;
19869;SDS011;10097;50.862;4.696;2023-03-23T08:45:30;3.40;;;0.97;;
19869;SDS011;10097;50.862;4.696;2023-03-23T08:47:56;5.13;;;0.77;;
19869;SDS011;10097;50.862;4.696;2023-03-23T08:50:25;5.90;;;1.17;;
19869;SDS011;10097;50.862;4.696;2023-03-23T08:52:52;7.83;;;0.60;;
19869;SDS011;10097;50.862;4.696;2023-03-23T08:55:20;4.10;;;0.80;;
19869;SDS011;10097;50.862;4.696;2023-03-23T08:57:46;2.27;;;0.50;;
19869;SDS011;10097;50.862;4.696;2023-03-23T09:00:14;7.53;;;0.63;;
19869;SDS011;10097;50.862;4.696;2023-03-23T09:02:45;5.00;;;0.70;;
19869;SDS011;10097;50.862;4.696;2023-03-23T09:05:13;3.23;;;0.80;;
19869;SDS011;10097;50.862;4.696;2023-03-23T09:07:42;4.50;;;0.70;;
19869;SDS011;10097;50.862;4.696;2023-03-23T09:10:09;4.27;;;0.70;;
19869;SDS011;10097;50.862;4.696;2023-03-23T09:12:35;5.00;;;1.07;;
19869;SDS011;10097;50.862;4.696;2023-03-23T09:15:02;6.13;;;0.87;;
19869;SDS011;10097;50.862;4.696;2023-03-23T09:17:33;4.67;;;0.73;;
19869;SDS011;10097;50.862;4.696;2023-03-23T09:20:06;4.60;;;0.90;;
19869;SDS011;10097;50.862;4.696;2023-03-23T09:22:44;3.77;;;0.70;;
19869;SDS011;10097;50.862;4.696;2023-03-23T09:25:12;5.23;;;0.93;;
19869;SDS011;10097;50.862;4.696;2023-03-23T09:27:40;3.67;;;0.80;;
19869;SDS011;10097;50.862;4.696;2023-03-23T09:30:09;2.63;;;0.80;;
19869;SDS011;10097;50.862;4.696;2023-03-23T09:32:36;2.70;;;0.80;;
19869;SDS011;10097;50.862;4.696;2023-03-23T09:35:03;5.87;;;1.33;;
19869;SDS011;10097;50.862;4.696;2023-03-23T09:37:37;4.93;;;0.73;;
19869;SDS011;10097;50.862;4.696;2023-03-23T09:40:06;6.60;;;0.83;;
19869;SDS011;10097;50.862;4.696;2023-03-23T09:42:52;4.30;;;1.00;;
19869;SDS011;10097;50.862;4.696;2023-03-23T09:45:27;6.63;;;1.03;;
19869;SDS011;10097;50.862;4.696;2023-03-23T09:50:40;6.73;;;1.10;;
19869;SDS011;10097;50.862;4.696;2023-03-23T09:55:47;3.97;;;0.70;;
19869;SDS011;10097;50.862;4.696;2023-03-23T09:58:29;5.10;;;1.20;;
19869;SDS011;10097;50.862;4.696;2023-03-23T10:01:02;2.17;;;0.70;;
19869;SDS011;10097;50.862;4.696;2023-03-23T10:03:40;5.90;;;1.13;;
19869;SDS011;10097;50.862;4.696;2023-03-23T10:06:12;3.57;;;1.00;;
19869;SDS011;10097;50.862;4.696;2023-03-23T10:08:48;4.90;;;1.00;;
19869;SDS011;10097;50.862;4.696;2023-03-23T10:14:04;5.63;;;1.63;;
19869;SDS011;10097;50.862;4.696;2023-03-23T10:16:33;5.20;;;1.07;;
19869;SDS011;10097;50.862;4.696;2023-03-23T10:22:13;7.10;;;1.17;;
19869;SDS011;10097;50.862;4.696;2023-03-23T10:24:43;4.27;;;1.23;;
19869;SDS011;10097;50.862;4.696;2023-03-23T10:27:38;3.07;;;1.00;;
19869;SDS011;10097;50.862;4.696;2023-03-23T10:35:56;3.97;;;1.20;;
19869;SDS011;10097;50.862;4.696;2023-03-23T10:38:35;3.30;;;0.80;;
19869;SDS011;10097;50.862;4.696;2023-03-23T10:41:11;6.67;;;1.17;;
19869;SDS011;10097;50.862;4.696;2023-03-23T10:43:40;4.47;;;0.90;;
19869;SDS011;10097;50.862;4.696;2023-03-23T10:48:59;4.05;;;1.25;;
19869;SDS011;10097;50.862;4.696;2023-03-23T10:51:30;6.38;;;1.08;;
19869;SDS011;10097;50.862;4.696;2023-03-23T10:54:02;5.35;;;1.48;;
19869;SDS011;10097;50.862;4.696;2023-03-23T10:56:47;5.15;;;1.42;;
19869;SDS011;10097;50.862;4.696;2023-03-23T10:59:20;4.38;;;1.60;;
19869;SDS011;10097;50.862;4.696;2023-03-23T11:01:52;4.75;;;2.05;;
19869;SDS011;10097;50.862;4.696;2023-03-23T11:04:20;7.07;;;1.75;;
19869;SDS011;10097;50.862;4.696;2023-03-23T11:06:49;7.97;;;1.90;;
19869;SDS011;10097;50.862;4.696;2023-03-23T11:09:18;7.32;;;1.90;;
19869;SDS011;10097;50.862;4.696;2023-03-23T11:11:50;6.22;;;1.73;;
19869;SDS011;10097;50.862;4.696;2023-03-23T11:16:53;7.65;;;2.20;;
19869;SDS011;10097;50.862;4.696;2023-03-23T11:19:27;9.18;;;2.28;;
19869;SDS011;10097;50.862;4.696;2023-03-23T11:22:05;8.13;;;2.92;;
19869;SDS011;10097;50.862;4.696;2023-03-23T11:24:34;8.95;;;3.00;;
19869;SDS011;10097;50.862;4.696;2023-03-23T11:27:08;11.43;;;3.30;;
19869;SDS011;10097;50.862;4.696;2023-03-23T11:29:36;9.87;;;3.40;;
19869;SDS011;10097;50.862;4.696;2023-03-23T11:32:18;8.97;;;3.50;;
19869;SDS011;10097;50.862;4.696;2023-03-23T11:34:48;12.10;;;3.97;;
19869;SDS011;10097;50.862;4.696;2023-03-23T11:37:32;11.53;;;4.00;;
19869;SDS011;10097;50.862;4.696;2023-03-23T11:42:38;12.00;;;4.10;;
19869;SDS011;10097;50.862;4.696;2023-03-23T11:45:13;11.80;;;2.77;;
19869;SDS011;10097;50.862;4.696;2023-03-23T11:47:41;8.30;;;2.83;;
19869;SDS011;10097;50.862;4.696;2023-03-23T11:58:14;7.78;;;1.88;;
19869;SDS011;10097;50.862;4.696;2023-03-23T12:00:48;7.32;;;1.77;;
19869;SDS011;10097;50.862;4.696;2023-03-23T12:06:09;10.93;;;1.90;;
19869;SDS011;10097;50.862;4.696;2023-03-23T12:16:47;7.57;;;1.98;;
19869;SDS011;10097;50.862;4.696;2023-03-23T12:22:17;7.63;;;1.50;;
19869;SDS011;10097;50.862;4.696;2023-03-23T12:48:02;8.73;;;1.80;;
19869;SDS011;10097;50.862;4.696;2023-03-23T13:10:48;7.72;;;2.40;;
19869;SDS011;10097;50.862;4.696;2023-03-23T13:13:19;11.00;;;1.95;;
19869;SDS011;10097;50.862;4.696;2023-03-23T13:19:11;10.43;;;2.70;;
19869;SDS011;10097;50.862;4.696;2023-03-23T13:21:39;11.52;;;2.45;;
19869;SDS011;10097;50.862;4.696;2023-03-23T13:24:31;8.90;;;2.45;;
19869;SDS011;10097;50.862;4.696;2023-03-23T13:27:01;10.98;;;2.60;;
19869;SDS011;10097;50.862;4.696;2023-03-23T13:29:27;6.78;;;2.70;;
19869;SDS011;10097;50.862;4.696;2023-03-23T13:33:00;8.93;;;2.70;;
19869;SDS011;10097;50.862;4.696;2023-03-23T13:35:03;10.85;;;2.50;;
19869;SDS011;10097;50.862;4.696;2023-03-23T13:37:41;11.82;;;2.60;;
19869;SDS011;10097;50.862;4.696;2023-03-23T13:40:18;9.30;;;2.20;;
19869;SDS011;10097;50.862;4.696;2023-03-23T13:42:52;7.55;;;2.45;;
19869;SDS011;10097;50.862;4.696;2023-03-23T13:48:05;7.68;;;2.13;;
19869;SDS011;10097;50.862;4.696;2023-03-23T13:51:00;9.60;;;2.38;;
19869;SDS011;10097;50.862;4.696;2023-03-23T13:53:31;12.98;;;2.45;;
19869;SDS011;10097;50.862;4.696;2023-03-23T13:59:07;9.27;;;2.47;;
19869;SDS011;10097;50.862;4.696;2023-03-23T14:01:41;9.90;;;2.70;;
19869;SDS011;10097;50.862;4.696;2023-03-23T14:04:16;7.32;;;2.10;;
19869;SDS011;10097;50.862;4.696;2023-03-23T14:06:44;10.38;;;2.10;;
19869;SDS011;10097;50.862;4.696;2023-03-23T14:17:06;9.48;;;2.60;;
19869;SDS011;10097;50.862;4.696;2023-03-23T14:19:37;10.30;;;1.70;;
19869;SDS011;10097;50.862;4.696;2023-03-23T14:22:04;9.73;;;1.85;;
19869;SDS011;10097;50.862;4.696;2023-03-23T14:24:40;7.95;;;2.10;;
19869;SDS011;10097;50.862;4.696;2023-03-23T14:27:11;9.05;;;2.08;;
19869;SDS011;10097;50.862;4.696;2023-03-23T14:29:39;11.82;;;2.22;;
19869;SDS011;10097;50.862;4.696;2023-03-23T14:32:07;14.68;;;2.35;;
19869;SDS011;10097;50.862;4.696;2023-03-23T14:34:36;10.80;;;2.20;;
19869;SDS011;10097;50.862;4.696;2023-03-23T14:37:02;11.07;;;2.17;;
19869;SDS011;10097;50.862;4.696;2023-03-23T14:39:29;12.10;;;2.75;;
19869;SDS011;10097;50.862;4.696;2023-03-23T14:42:04;10.30;;;1.90;;
19869;SDS011;10097;50.862;4.696;2023-03-23T14:44:35;9.27;;;2.08;;
19869;SDS011;10097;50.862;4.696;2023-03-23T14:47:06;9.55;;;2.35;;
19869;SDS011;10097;50.862;4.696;2023-03-23T14:49:39;11.68;;;2.05;;
19869;SDS011;10097;50.862;4.696;2023-03-23T14:52:17;9.95;;;2.20;;
19869;SDS011;10097;50.862;4.696;2023-03-23T14:54:43;10.00;;;2.58;;
19869;SDS011;10097;50.862;4.696;2023-03-23T14:57:15;12.98;;;2.40;;
19869;SDS011;10097;50.862;4.696;2023-03-23T14:59:42;11.80;;;2.30;;
19869;SDS011;10097;50.862;4.696;2023-03-23T15:02:21;13.38;;;2.53;;
19869;SDS011;10097;50.862;4.696;2023-03-23T15:04:56;11.63;;;2.58;;
19869;SDS011;10097;50.862;4.696;2023-03-23T15:07:28;15.00;;;2.85;;
19869;SDS011;10097;50.862;4.696;2023-03-23T15:09:57;15.82;;;2.60;;
19869;SDS011;10097;50.862;4.696;2023-03-23T15:12:24;9.07;;;2.30;;
19869;SDS011;10097;50.862;4.696;2023-03-23T15:14:55;11.75;;;2.10;;
19869;SDS011;10097;50.862;4.696;2023-03-23T15:17:28;11.48;;;1.80;;
19869;SDS011;10097;50.862;4.696;2023-03-23T15:19:55;13.90;;;2.13;;
19869;SDS011;10097;50.862;4.696;2023-03-23T15:22:27;10.98;;;1.88;;
19869;SDS011;10097;50.862;4.696;2023-03-23T15:25:09;9.68;;;1.83;;
19869;SDS011;10097;50.862;4.696;2023-03-23T15:27:51;9.65;;;2.00;;
19869;SDS011;10097;50.862;4.696;2023-03-23T15:32:49;9.90;;;1.75;;
19869;SDS011;10097;50.862;4.696;2023-03-23T15:35:21;11.95;;;2.42;;
19869;SDS011;10097;50.862;4.696;2023-03-23T15:38:03;8.45;;;2.00;;
19869;SDS011;10097;50.862;4.696;2023-03-23T15:40:35;10.63;;;2.33;;
19869;SDS011;10097;50.862;4.696;2023-03-23T15:43:22;7.85;;;1.80;;
19869;SDS011;10097;50.862;4.696;2023-03-23T15:45:54;10.52;;;2.03;;
19869;SDS011;10097;50.862;4.696;2023-03-23T15:49:13;9.43;;;2.13;;
19869;SDS011;10097;50.862;4.696;2023-03-23T15:51:24;12.88;;;2.20;;
19869;SDS011;10097;50.862;4.696;2023-03-23T15:53:51;9.55;;;2.00;;
19869;SDS011;10097;50.862;4.696;2023-03-23T15:56:18;8.90;;;2.25;;
19869;SDS011;10097;50.862;4.696;2023-03-23T15:58:44;9.38;;;1.95;;
19869;SDS011;10097;50.862;4.696;2023-03-23T16:01:14;13.77;;;2.30;;
19869;SDS011;10097;50.862;4.696;2023-03-23T16:03:53;9.73;;;2.42;;
19869;SDS011;10097;50.862;4.696;2023-03-23T16:06:23;9.02;;;2.13;;
19869;SDS011;10097;50.862;4.696;2023-03-23T16:08:50;8.38;;;2.20;;
19869;SDS011;10097;50.862;4.696;2023-03-23T16:11:19;9.48;;;2.10;;
19869;SDS011;10097;50.862;4.696;2023-03-23T16:13:45;9.82;;;2.28;;
19869;SDS011;10097;50.862;4.696;2023-03-23T16:16:13;8.93;;;2.10;;
19869;SDS011;10097;50.862;4.696;2023-03-23T16:18:40;11.60;;;2.17;;
19869;SDS011;10097;50.862;4.696;2023-03-23T16:21:05;8.80;;;2.40;;
19869;SDS011;10097;50.862;4.696;2023-03-23T16:23:31;10.68;;;1.77;;
19869;SDS011;10097;50.862;4.696;2023-03-23T16:25:58;12.75;;;2.30;;
19869;SDS011;10097;50.862;4.696;2023-03-23T16:28:24;12.52;;;2.97;;
19869;SDS011;10097;50.862;4.696;2023-03-23T16:30:50;10.52;;;1.63;;
19869;SDS011;10097;50.862;4.696;2023-03-23T16:33:15;11.38;;;2.20;;
19869;SDS011;10097;50.862;4.696;2023-03-23T16:35:41;9.70;;;2.70;;
19869;SDS011;10097;50.862;4.696;2023-03-23T16:38:09;13.45;;;2.28;;
19869;SDS011;10097;50.862;4.696;2023-03-23T16:40:41;11.82;;;2.03;;
19869;SDS011;10097;50.862;4.696;2023-03-23T16:43:10;8.25;;;2.00;;
19869;SDS011;10097;50.862;4.696;2023-03-23T16:45:37;9.65;;;1.88;;
19869;SDS011;10097;50.862;4.696;2023-03-23T16:48:05;7.18;;;1.98;;
19869;SDS011;10097;50.862;4.696;2023-03-23T16:50:32;9.25;;;1.88;;
19869;SDS011;10097;50.862;4.696;2023-03-23T16:53:00;10.57;;;2.35;;
19869;SDS011;10097;50.862;4.696;2023-03-23T16:55:26;8.00;;;2.10;;
19869;SDS011;10097;50.862;4.696;2023-03-23T16:57:52;8.00;;;2.05;;
19869;SDS011;10097;50.862;4.696;2023-03-23T17:00:19;13.40;;;2.15;;
19869;SDS011;10097;50.862;4.696;2023-03-23T17:02:50;6.85;;;1.45;;
19869;SDS011;10097;50.862;4.696;2023-03-23T17:05:17;18.90;;;5.90;;